Main page
METAR-TAF:

METAR-TAF

Airports :

Valladolid Airport

Valladolid, Spain

latitude: 41-43N, longitude: 004-51W, elevation: 849 m

Current weather observation

The report was made 16 minutes ago, at 09:30 UTC
Wind 5 kt from variable directions
Temperature 12°C
Humidity 47%
Pressure 1014 hPa
Visibility 10 km or more
Few clouds at a height of 3500 ft

METAR: LEVD 190930Z VRB05KT 9999 FEW035 12/01 Q1014

Time: 11:46 (09:46 UTC)

Forecast

The report was made 4 hours and 46 minutes ago, at 05:00 UTC
Forecast valid from 19 at 06 UTC to 20 at 06 UTC
Wind 10 kt from the West/Northwest
Visibility 10 km or more
Few clouds at a height of 4500 ft
Becoming
from 19 at 18 UTC to 19 at 20 UTC
Wind 12 kt from the Northeast
Probability 40% :
Temporary
from 19 at 20 UTC to 19 at 23 UTC
Wind 12 kt from the Northeast with gusts up to 25 kt

TAF: LEVD 190500Z 1906/2006 30010KT 9999 FEW045 TX18/1916Z TN05/2006Z BECMG 1918/1920 05012KT PROB40 TEMPO 1920/1923 05012G25KT

Weather observations and forecasts of more than 4000 airports (METAR and TAF reports).

The available stations are represented by yellow and red dots on the map.

Hover mouse over dot to see the name of the station.

Then click to see weather observations and forecasts.

To change the map : click on the green buttons with a black cross to zoom in, on the green button with a dash to zoom out, or on the green arrows for adjacent maps.


METAR-TAF: